Kezdőlap
METAR-TAF:

METAR-TAF

Repülőterek :

Maple Lake Municipal Airport

Maple Lake, Minnesota, Amerikai Egyesült Államok

földrajzi szélesség: 45-14-10N, földrajzi hosszúság: 093-59-08W, magasság: 313 m

Jelenlegi meteorológiai megfigyelések

A jelentés 12 perccel ezelõtt készült, 18:35 UTC
Szélcsend
Hőmérséklet -14°C
Páratartalom 72%
Légköri nyomás 1019 hPa
Látótávolság: 16.1 km

METAR: KMGG 151835Z AUTO 00000KT 10SM M14/M18 A3008 RMK AO2 T11371178

Idő: 12:47 (18:47 UTC)


TAF: hiányzik

Meteorológiai megfigyelések és előrejelzések több, mint 4000 repülőtéren (METAR és TAF jelentéseket).

A térképen piros és sárga pontok jelzik az elérhető meteorológiai állomásokat.

Mozgassa az egeret a pont fölött, hogy megjelenjen az állomás neve.

Azután kattintson az időjárási megfigyelések és előrejelzések megtekintéséhez.

A térkép megváltoztatása: kattintson a fekete keresztel jelölt zöld gombra ráközelítéshez, a vonallal jelölt zöld gombra távolításhoz, vagy a zöld nyilakra a szomszédos térképek eléréséhez.


METAR-TAF: